createdAt,value
2022-08-07T00:00:07.148Z,5.43
2022-08-07T00:02:44.099Z,5.72
2022-08-07T00:05:11.351Z,5.95
2022-08-07T00:07:40.724Z,5.45
2022-08-07T00:10:27.086Z,5.68
2022-08-07T00:12:57.692Z,5.60
2022-08-07T00:15:38.360Z,5.32
2022-08-07T00:18:24.161Z,5.55
2022-08-07T00:21:01.830Z,5.57
2022-08-07T00:23:30.990Z,5.28
2022-08-07T00:26:02.855Z,5.30
2022-08-07T00:28:45.653Z,5.82
2022-08-07T00:31:16.579Z,5.93
2022-08-07T00:33:47.765Z,5.53
2022-08-07T00:36:14.651Z,5.70
2022-08-07T00:38:43.736Z,6.28
2022-08-07T00:41:15.048Z,5.93
2022-08-07T00:43:59.326Z,6.40
2022-08-07T00:46:29.022Z,5.78
2022-08-07T00:48:55.897Z,5.65
2022-08-07T00:51:22.584Z,6.57
2022-08-07T00:53:56.037Z,5.40
2022-08-07T00:56:23.630Z,5.65
2022-08-07T00:58:57.452Z,5.60
2022-08-07T01:01:24.248Z,5.68
2022-08-07T01:03:55.485Z,6.13
2022-08-07T01:06:27.122Z,7.25
2022-08-07T01:08:56.236Z,6.57
2022-08-07T01:12:23.866Z,5.90
2022-08-07T01:14:10.077Z,6.20
2022-08-07T01:16:37.215Z,5.97
2022-08-07T01:19:05.103Z,5.72
2022-08-07T01:21:46.173Z,5.78
2022-08-07T01:24:14.132Z,5.95
2022-08-07T01:26:47.911Z,6.75
2022-08-07T01:29:18.444Z,6.75
2022-08-07T01:31:48.557Z,6.20
2022-08-07T01:34:17.912Z,6.40
2022-08-07T01:36:52.635Z,6.22
2022-08-07T01:39:40.992Z,5.75
2022-08-07T01:42:38.231Z,6.68
2022-08-07T01:45:15.833Z,6.35
2022-08-07T01:48:19.786Z,5.78
2022-08-07T01:50:32.611Z,6.30
2022-08-07T01:53:00.608Z,6.30
2022-08-07T01:55:29.639Z,6.45
2022-08-07T01:58:06.647Z,6.68
2022-08-07T02:00:51.289Z,6.55
2022-08-07T02:03:32.190Z,6.10
2022-08-07T02:06:31.986Z,6.57
2022-08-07T02:09:04.913Z,7.75
2022-08-07T02:12:03.563Z,6.78
2022-08-07T02:14:35.704Z,6.90
2022-08-07T02:17:06.067Z,6.18
2022-08-07T02:20:03.989Z,6.88
2022-08-07T02:22:25.926Z,6.25
2022-08-07T02:24:54.718Z,6.13
2022-08-07T02:27:22.850Z,6.47
2022-08-07T02:29:54.480Z,6.50
2022-08-07T02:32:29.849Z,6.45
2022-08-07T02:34:58.234Z,7.25
2022-08-07T02:37:28.282Z,6.53
2022-08-07T02:40:12.334Z,6.88
2022-08-07T02:42:51.092Z,6.63
2022-08-07T02:45:58.416Z,6.38
2022-08-07T02:48:15.666Z,6.82
2022-08-07T02:50:48.374Z,7.28
2022-08-07T02:53:38.469Z,6.38
2022-08-07T02:56:17.509Z,7.15
2022-08-07T02:58:49.731Z,6.18
2022-08-07T03:01:35.593Z,8.93
2022-08-07T03:04:08.401Z,10.80
2022-08-07T03:06:42.105Z,11.10
2022-08-07T03:09:13.810Z,11.52
2022-08-07T03:11:52.287Z,9.85
2022-08-07T03:14:28.977Z,10.60
2022-08-07T03:16:56.814Z,9.65
2022-08-07T03:19:24.218Z,9.27
2022-08-07T03:21:57.295Z,11.25
2022-08-07T03:24:27.500Z,10.77
2022-08-07T03:27:01.168Z,9.98
2022-08-07T03:29:38.380Z,9.73
2022-08-07T03:32:13.096Z,9.82
2022-08-07T03:34:47.267Z,9.02
2022-08-07T03:37:32.495Z,9.35
2022-08-07T03:40:15.997Z,10.10
2022-08-07T03:42:44.087Z,10.02
2022-08-07T03:45:12.739Z,10.73
2022-08-07T03:48:00.719Z,10.13
2022-08-07T03:50:28.518Z,11.27
2022-08-07T03:52:58.692Z,11.18
2022-08-07T03:55:52.963Z,10.43
2022-08-07T03:59:09.711Z,10.80
2022-08-07T04:01:01.072Z,11.48
2022-08-07T04:03:38.820Z,11.23
2022-08-07T04:06:37.158Z,9.10
2022-08-07T04:09:03.808Z,10.02
2022-08-07T04:12:26.250Z,10.38
2022-08-07T04:14:38.100Z,10.38
2022-08-07T04:17:05.279Z,10.48
2022-08-07T04:19:52.080Z,10.68
2022-08-07T04:22:22.995Z,10.73
2022-08-07T04:24:50.414Z,9.93
2022-08-07T04:27:25.163Z,10.32
2022-08-07T04:30:02.446Z,10.07
2022-08-07T04:32:45.016Z,9.25
2022-08-07T04:35:16.367Z,9.20
2022-08-07T04:38:02.765Z,10.05
2022-08-07T04:40:32.444Z,9.85
2022-08-07T04:43:01.633Z,8.93
2022-08-07T04:45:57.349Z,9.35
2022-08-07T04:48:44.521Z,9.23
2022-08-07T04:51:19.591Z,9.77
2022-08-07T04:54:06.507Z,9.40
2022-08-07T04:58:24.426Z,9.10
2022-08-07T05:00:11.270Z,10.20
2022-08-07T05:02:43.605Z,10.50
2022-08-07T05:05:53.255Z,11.43
2022-08-07T05:09:01.218Z,11.20
2022-08-07T05:11:57.603Z,11.23
2022-08-07T05:14:52.666Z,12.02
2022-08-07T05:17:12.023Z,11.45
2022-08-07T05:19:44.791Z,11.10
2022-08-07T05:22:26.529Z,10.77
2022-08-07T05:24:57.242Z,11.20
2022-08-07T05:28:16.515Z,10.82
2022-08-07T05:30:16.095Z,11.50
2022-08-07T05:32:58.557Z,11.23
2022-08-07T05:35:33.595Z,9.90
2022-08-07T05:38:10.741Z,9.55
2022-08-07T05:40:49.547Z,9.93
2022-08-07T05:43:18.719Z,9.07
2022-08-07T05:45:48.345Z,9.90
2022-08-07T05:48:19.557Z,9.10
2022-08-07T05:50:53.395Z,10.05
2022-08-07T05:54:13.382Z,9.50
2022-08-07T05:56:09.183Z,9.13
2022-08-07T05:58:52.588Z,9.48
2022-08-07T06:01:24.821Z,9.07
2022-08-07T06:03:58.521Z,9.43
2022-08-07T06:06:34.057Z,8.85
2022-08-07T06:09:05.113Z,9.40
2022-08-07T06:11:35.924Z,9.20
2022-08-07T06:14:11.921Z,10.02
2022-08-07T06:16:45.786Z,9.63
2022-08-07T06:19:52.108Z,9.82
2022-08-07T06:22:15.557Z,9.63
2022-08-07T06:24:57.997Z,9.23
2022-08-07T06:27:54.468Z,9.00
2022-08-07T06:30:24.151Z,9.45
2022-08-07T06:33:03.555Z,9.20
2022-08-07T06:35:39.308Z,9.65
2022-08-07T06:38:20.642Z,9.15
2022-08-07T06:40:51.266Z,9.02
2022-08-07T06:43:22.439Z,8.88
2022-08-07T06:46:02.813Z,8.93
2022-08-07T06:48:29.733Z,8.95
2022-08-07T06:50:59.067Z,8.75
2022-08-07T06:55:27.527Z,8.48
2022-08-07T06:56:49.760Z,8.55
2022-08-07T07:00:11.647Z,7.88
2022-08-07T07:02:48.758Z,8.55
2022-08-07T07:05:12.857Z,8.15
2022-08-07T07:07:59.472Z,8.02
2022-08-07T07:10:33.769Z,7.93
2022-08-07T07:13:04.104Z,7.78
2022-08-07T07:15:35.724Z,7.05
2022-08-07T07:18:02.846Z,7.43
2022-08-07T07:20:35.758Z,8.05
2022-08-07T07:24:09.335Z,7.55
2022-08-07T07:26:33.188Z,7.72
2022-08-07T07:29:56.107Z,7.80
2022-08-07T07:31:46.994Z,6.88
2022-08-07T07:34:16.882Z,7.28
2022-08-07T07:36:47.951Z,6.60
2022-08-07T07:39:21.125Z,6.35
2022-08-07T07:42:13.625Z,7.07
2022-08-07T07:44:39.771Z,6.38
2022-08-07T07:47:16.101Z,5.90
2022-08-07T07:50:33.161Z,6.70
2022-08-07T07:52:38.749Z,5.90
2022-08-07T07:55:07.773Z,6.38
2022-08-07T07:57:50.465Z,6.45
2022-08-07T08:00:31.588Z,5.85
2022-08-07T08:03:08.474Z,6.57
2022-08-07T08:05:54.022Z,5.93
2022-08-07T08:08:34.940Z,6.22
2022-08-07T08:11:08.641Z,5.72
2022-08-07T08:13:50.772Z,5.05
2022-08-07T08:16:24.931Z,5.30
2022-08-07T08:18:54.766Z,5.60
2022-08-07T08:22:00.629Z,5.38
2022-08-07T08:24:47.656Z,5.15
2022-08-07T08:27:26.543Z,5.22
2022-08-07T08:30:07.846Z,4.57
2022-08-07T08:32:42.081Z,5.00
2022-08-07T08:35:10.449Z,5.38
2022-08-07T08:38:01.543Z,5.00
2022-08-07T08:40:28.791Z,4.88
2022-08-07T08:43:03.402Z,4.70
2022-08-07T08:45:58.312Z,4.75
2022-08-07T08:48:36.178Z,4.28
2022-08-07T08:52:01.100Z,5.03
2022-08-07T08:54:33.279Z,5.05
2022-08-07T08:57:03.957Z,4.15
2022-08-07T08:59:42.104Z,4.05
2022-08-07T09:02:35.121Z,4.20
2022-08-07T09:05:04.052Z,4.43
2022-08-07T09:07:46.415Z,4.60
2022-08-07T09:10:27.364Z,4.32
2022-08-07T09:13:03.806Z,4.63
2022-08-07T09:16:23.931Z,3.92
2022-08-07T09:18:58.267Z,4.53
2022-08-07T09:21:33.915Z,4.28
2022-08-07T09:24:59.653Z,3.88
2022-08-07T09:27:22.298Z,4.03
2022-08-07T09:30:04.786Z,4.35
2022-08-07T09:32:53.121Z,4.05
2022-08-07T09:36:04.742Z,4.28
2022-08-07T09:38:30.001Z,4.00
2022-08-07T09:41:05.155Z,3.63
2022-08-07T09:44:03.463Z,3.42
2022-08-07T09:47:55.116Z,3.72
2022-08-07T09:50:00.405Z,3.50
2022-08-07T09:52:38.021Z,3.63
2022-08-07T09:55:17.371Z,3.25
2022-08-07T09:58:19.970Z,3.08
2022-08-07T10:01:02.131Z,3.30
2022-08-07T10:04:05.879Z,3.00
2022-08-07T10:06:41.619Z,2.80
2022-08-07T10:09:15.890Z,2.90
2022-08-07T10:12:00.627Z,2.92
2022-08-07T10:14:35.461Z,2.67
2022-08-07T10:17:17.194Z,2.65
2022-08-07T10:19:49.128Z,2.28
2022-08-07T10:22:33.864Z,2.65
2022-08-07T10:25:22.809Z,2.72
2022-08-07T10:28:13.142Z,2.85
2022-08-07T10:30:58.318Z,2.42
2022-08-07T10:34:05.625Z,2.67
2022-08-07T10:36:29.948Z,2.08
2022-08-07T10:39:14.593Z,2.50
2022-08-07T10:41:53.858Z,2.42
2022-08-07T10:44:37.596Z,2.58
2022-08-07T10:47:26.959Z,2.70
2022-08-07T10:50:15.174Z,2.20
2022-08-07T10:53:08.094Z,2.95
2022-08-07T10:55:53.299Z,2.20
2022-08-07T10:58:33.037Z,1.95
2022-08-07T11:01:03.138Z,2.15
2022-08-07T11:04:16.495Z,2.40
2022-08-07T11:06:50.497Z,2.15
2022-08-07T11:10:07.136Z,1.70
2022-08-07T11:12:19.018Z,2.33
2022-08-07T11:15:02.729Z,2.15
2022-08-07T11:17:48.260Z,2.13
2022-08-07T11:20:19.578Z,1.90
2022-08-07T11:23:02.849Z,2.13
2022-08-07T11:25:29.553Z,1.85
2022-08-07T11:28:17.690Z,2.15
2022-08-07T11:31:02.293Z,2.00
2022-08-07T11:33:53.860Z,1.60
2022-08-07T11:36:30.783Z,2.28
2022-08-07T11:38:57.972Z,1.80
2022-08-07T11:42:01.795Z,1.63
2022-08-07T11:44:37.841Z,1.70
2022-08-07T11:47:13.699Z,1.42
2022-08-07T11:50:18.838Z,1.48
2022-08-07T11:52:45.692Z,1.58
2022-08-07T11:56:14.009Z,1.52
2022-08-07T11:58:21.592Z,1.70
2022-08-07T12:01:20.435Z,1.33
2022-08-07T12:04:01.454Z,1.42
2022-08-07T12:06:39.531Z,1.52
2022-08-07T12:09:16.429Z,1.83
2022-08-07T12:12:09.232Z,1.20
2022-08-07T12:15:01.394Z,1.70
2022-08-07T12:17:33.944Z,1.50
2022-08-07T12:20:12.898Z,1.35
2022-08-07T12:23:09.188Z,1.50
2022-08-07T12:26:03.053Z,1.30
2022-08-07T12:28:57.605Z,1.40
2022-08-07T12:32:02.436Z,1.50
2022-08-07T12:34:27.969Z,1.55
2022-08-07T12:36:56.466Z,1.92
2022-08-07T12:39:42.067Z,1.80
2022-08-07T12:42:12.174Z,1.70
2022-08-07T12:44:43.041Z,1.52
2022-08-07T12:47:30.897Z,1.45
2022-08-07T12:50:38.899Z,1.27
2022-08-07T12:53:18.041Z,1.20
2022-08-07T12:56:09.361Z,1.45
2022-08-07T12:58:39.519Z,1.40
2022-08-07T13:01:32.979Z,1.20
2022-08-07T13:04:31.655Z,1.40
2022-08-07T13:08:13.841Z,1.23
2022-08-07T13:10:29.175Z,1.23
2022-08-07T13:13:47.254Z,1.23
2022-08-07T13:16:10.721Z,1.42
2022-08-07T13:18:50.562Z,1.30
2022-08-07T13:21:37.355Z,1.30
2022-08-07T13:24:15.549Z,1.60
2022-08-07T13:27:05.447Z,1.50
2022-08-07T13:29:47.821Z,1.70
2022-08-07T13:32:32.493Z,1.58
2022-08-07T13:35:08.859Z,1.60
2022-08-07T13:37:36.333Z,1.70
2022-08-07T13:40:35.388Z,1.70
2022-08-07T13:43:04.643Z,1.63
2022-08-07T13:46:11.455Z,1.55
2022-08-07T13:48:20.940Z,1.80
2022-08-07T13:51:20.465Z,1.70
2022-08-07T13:54:00.200Z,1.70
2022-08-07T13:56:35.926Z,1.25
2022-08-07T13:59:30.643Z,1.90
2022-08-07T14:02:07.677Z,1.40
2022-08-07T14:04:47.479Z,1.50
2022-08-07T14:07:18.315Z,1.27
2022-08-07T14:10:02.191Z,1.70
2022-08-07T14:12:42.006Z,1.48
2022-08-07T14:15:25.153Z,1.50
2022-08-07T14:18:28.057Z,1.80
2022-08-07T14:20:48.712Z,1.45
2022-08-07T14:23:58.653Z,1.52
2022-08-07T14:26:28.390Z,1.45
2022-08-07T14:29:04.383Z,1.83
2022-08-07T14:31:42.985Z,1.30
2022-08-07T14:34:29.249Z,1.50
2022-08-07T14:36:57.068Z,1.60
2022-08-07T14:40:15.466Z,1.20
2022-08-07T14:42:19.779Z,1.50
2022-08-07T14:44:51.824Z,1.50
2022-08-07T14:47:19.407Z,1.63
2022-08-07T14:49:57.265Z,1.65
2022-08-07T14:58:02.012Z,1.63
2022-08-07T15:00:32.083Z,1.48
2022-08-07T15:03:00.171Z,1.73
2022-08-07T15:05:55.225Z,1.95
2022-08-07T15:08:32.429Z,1.40
2022-08-07T15:14:01.537Z,1.60
2022-08-07T15:16:55.050Z,1.98
2022-08-07T15:22:23.191Z,1.50
2022-08-07T15:25:13.161Z,1.70
2022-08-07T15:28:32.317Z,1.63
2022-08-07T15:30:36.377Z,1.40
2022-08-07T15:36:11.771Z,1.70
2022-08-07T15:38:58.852Z,1.63
2022-08-07T15:44:18.096Z,1.30
2022-08-07T15:46:52.775Z,1.70
2022-08-07T15:49:25.519Z,1.73
2022-08-07T15:52:13.905Z,1.63
2022-08-07T15:54:43.083Z,1.60
2022-08-07T15:57:27.756Z,1.33
2022-08-07T16:00:04.422Z,1.40
2022-08-07T16:02:39.798Z,1.40
2022-08-07T16:05:15.687Z,1.70
2022-08-07T16:08:30.696Z,1.42
2022-08-07T16:10:33.385Z,1.75
2022-08-07T16:13:57.617Z,1.55
2022-08-07T16:16:47.584Z,1.50
2022-08-07T16:19:09.536Z,2.15
2022-08-07T16:22:03.226Z,1.60
2022-08-07T16:24:33.733Z,1.40
2022-08-07T16:27:18.438Z,1.45
2022-08-07T16:30:30.080Z,1.58
2022-08-07T16:32:54.967Z,2.60
2022-08-07T16:35:52.068Z,1.70
2022-08-07T16:39:00.106Z,1.42
2022-08-07T16:41:41.271Z,1.67
2022-08-07T16:44:47.547Z,1.35
2022-08-07T16:47:52.898Z,1.48
2022-08-07T16:50:41.890Z,1.55
2022-08-07T16:54:02.945Z,1.50
2022-08-07T16:56:20.889Z,1.60
2022-08-07T16:59:10.524Z,1.67
2022-08-07T17:01:41.157Z,1.75
2022-08-07T17:04:24.363Z,1.70
2022-08-07T17:07:03.344Z,1.50
2022-08-07T17:10:06.314Z,1.50
2022-08-07T17:12:44.064Z,1.77
2022-08-07T17:15:15.676Z,1.52
2022-08-07T17:17:47.041Z,1.58
2022-08-07T17:20:37.868Z,1.42
2022-08-07T17:23:16.684Z,1.70
2022-08-07T17:25:58.871Z,1.40
2022-08-07T17:28:35.287Z,1.92
2022-08-07T17:31:16.400Z,1.65
2022-08-07T17:34:32.528Z,1.25
2022-08-07T17:36:58.402Z,1.42
2022-08-07T17:39:57.689Z,1.50
2022-08-07T17:42:58.690Z,1.40
2022-08-07T17:45:54.233Z,1.88
2022-08-07T17:48:31.827Z,1.77
2022-08-07T17:51:07.790Z,1.80
2022-08-07T17:54:00.751Z,1.55
2022-08-07T17:56:49.957Z,1.50
2022-08-07T17:59:35.383Z,1.70
2022-08-07T18:02:14.659Z,1.60
2022-08-07T18:05:20.723Z,1.90
2022-08-07T18:08:23.898Z,1.50
2022-08-07T18:12:07.419Z,1.30
2022-08-07T18:14:02.524Z,1.50
2022-08-07T18:16:33.078Z,1.67
2022-08-07T18:21:04.625Z,1.30
2022-08-07T18:22:05.353Z,1.42
2022-08-07T18:24:42.337Z,1.40
2022-08-07T18:27:24.320Z,1.58
2022-08-07T18:30:04.239Z,1.73
2022-08-07T18:33:10.781Z,1.58
2022-08-07T18:35:51.832Z,1.60
2022-08-07T18:38:59.263Z,1.52
2022-08-07T18:41:46.401Z,1.60
2022-08-07T18:44:19.181Z,1.27
2022-08-07T18:47:04.551Z,1.60
2022-08-07T18:50:19.374Z,1.63
2022-08-07T18:52:54.145Z,1.70
2022-08-07T18:55:55.560Z,1.50
2022-08-07T18:58:36.166Z,1.60
2022-08-07T19:02:19.189Z,1.80
2022-08-07T19:04:09.596Z,1.58
2022-08-07T19:06:51.565Z,1.63
2022-08-07T19:09:55.452Z,1.90
2022-08-07T19:12:20.836Z,1.65
2022-08-07T19:16:02.416Z,1.52
2022-08-07T19:18:12.537Z,1.63
2022-08-07T19:21:09.288Z,1.70
2022-08-07T19:23:58.422Z,1.52
2022-08-07T19:28:28.591Z,1.63
2022-08-07T19:31:00.766Z,1.75
2022-08-07T19:32:27.170Z,1.38
2022-08-07T19:35:03.262Z,1.30
2022-08-07T19:37:55.672Z,1.45
2022-08-07T19:40:31.491Z,1.63
2022-08-07T19:43:02.285Z,1.70
2022-08-07T19:46:07.902Z,1.70
2022-08-07T19:48:24.427Z,3.00
2022-08-07T19:50:53.065Z,1.70
2022-08-07T19:54:44.392Z,1.90
2022-08-07T19:56:15.107Z,1.70
2022-08-07T19:58:56.976Z,1.60
2022-08-07T20:01:52.943Z,1.90
2022-08-07T20:04:12.486Z,1.75
2022-08-07T20:06:58.336Z,1.50
2022-08-07T20:10:35.891Z,2.05
2022-08-07T20:12:32.208Z,1.77
2022-08-07T20:15:03.731Z,2.03
2022-08-07T20:17:31.749Z,1.70
2022-08-07T20:20:04.653Z,2.45
2022-08-07T20:22:36.003Z,1.88
2022-08-07T20:25:12.570Z,1.90
2022-08-07T20:27:54.036Z,1.60
2022-08-07T20:30:27.931Z,1.80
2022-08-07T20:32:55.321Z,1.92
2022-08-07T20:35:26.428Z,1.65
2022-08-07T20:37:58.490Z,1.98
2022-08-07T20:40:33.250Z,1.90
2022-08-07T20:43:02.280Z,1.85
2022-08-07T20:46:24.324Z,1.98
2022-08-07T20:48:25.925Z,1.70
2022-08-07T20:50:57.547Z,1.70
2022-08-07T20:53:25.905Z,2.00
2022-08-07T20:56:12.003Z,1.90
2022-08-07T20:58:40.759Z,1.77
2022-08-07T21:01:19.408Z,1.70
2022-08-07T21:04:18.789Z,2.25
2022-08-07T21:06:36.686Z,2.22
2022-08-07T21:09:14.376Z,1.65
2022-08-07T21:11:46.334Z,1.90
2022-08-07T21:14:33.341Z,2.47
2022-08-07T21:18:00.766Z,1.73
2022-08-07T21:19:51.798Z,1.90
2022-08-07T21:22:34.269Z,2.00
2022-08-07T21:25:19.341Z,1.85
2022-08-07T21:28:01.838Z,2.05
2022-08-07T21:30:37.402Z,2.05
2022-08-07T21:33:16.938Z,2.03
2022-08-07T21:36:06.528Z,2.00
2022-08-07T21:38:49.972Z,2.00
2022-08-07T21:41:38.131Z,1.80
2022-08-07T21:44:28.252Z,2.05
2022-08-07T21:46:59.840Z,1.83
2022-08-07T21:50:02.531Z,2.00
2022-08-07T21:52:35.064Z,1.88
2022-08-07T21:55:29.792Z,2.00
2022-08-07T21:58:03.180Z,1.92
2022-08-07T22:00:31.113Z,1.80
2022-08-07T22:03:07.318Z,1.90
2022-08-07T22:05:57.236Z,2.17
2022-08-07T22:08:28.327Z,1.83
2022-08-07T22:10:59.596Z,1.92
2022-08-07T22:13:51.782Z,1.85
2022-08-07T22:16:44.258Z,2.05
2022-08-07T22:19:20.076Z,1.83
2022-08-07T22:22:21.037Z,2.00
2022-08-07T22:25:11.273Z,2.20
2022-08-07T22:28:07.489Z,2.03
2022-08-07T22:31:31.334Z,2.03
2022-08-07T22:34:05.227Z,2.00
2022-08-07T22:36:46.476Z,2.00
2022-08-07T22:39:51.666Z,2.10
2022-08-07T22:42:53.851Z,2.10
2022-08-07T22:45:10.960Z,2.10
2022-08-07T22:48:31.749Z,2.10
2022-08-07T22:50:55.074Z,2.05
2022-08-07T22:54:07.080Z,2.50
2022-08-07T22:56:28.907Z,2.40
2022-08-07T22:58:56.177Z,2.10
2022-08-07T23:01:23.429Z,2.13
2022-08-07T23:03:58.862Z,2.13
2022-08-07T23:06:51.699Z,1.92
2022-08-07T23:10:05.951Z,2.00
2022-08-07T23:12:34.755Z,1.90
2022-08-07T23:15:07.593Z,2.20
2022-08-07T23:17:45.153Z,2.00
2022-08-07T23:20:51.420Z,2.03
2022-08-07T23:24:05.638Z,1.90
2022-08-07T23:26:26.139Z,1.92
2022-08-07T23:29:17.126Z,2.15
2022-08-07T23:34:19.670Z,2.80
2022-08-07T23:35:06.652Z,1.92
2022-08-07T23:38:00.942Z,1.90
2022-08-07T23:40:28.499Z,2.03
2022-08-07T23:42:58.201Z,2.13
2022-08-07T23:46:02.452Z,2.28
2022-08-07T23:48:29.258Z,2.30
2022-08-07T23:51:03.345Z,2.17
2022-08-07T23:53:56.162Z,2.40
2022-08-07T23:56:27.267Z,2.53
2022-08-07T23:58:57.769Z,2.20
